메인 페이지
METAR-TAF:

METAR-TAF

공항 :

샨리우르파, 터키

위도: 37-27N, 경도: 38-54E, 고도: 823m

현재 날씨관측

예보는 42분 전, 08:20시(UTC)에 발표되었습니다.
동북동14kt
온도 7°C
습도 100%
기압 1018 hPa
시정: 5000m
고도 300ft 상공 흐림
박무

METAR: LTCS 090820Z 07014KT 5000 BR OVC003 07/07 Q1018 RMK RWY22 10012KT

시각: 12:02 (09:02 UTC)

예보

예보는 4 시간 22분 전, 04:40시(UTC)에 발표되었습니다.
예보 대상 시간: 09일 06시부터 10일 06시까지 (UTC)
동북동9kt
시정: 2000m
고도 300ft 상공 구름 많음
고도 1600ft 상공 구름 많음
약한비, 박무
일시적
09일 06시부터 09일 09시까지 (UTC)
시정: 0500m
고도 200ft 상공
안개
일시적
09일 09시부터 09일 12시까지 (UTC)
시정: 0500m
고도 200ft 상공
안개
일시적
09일 12시부터 09일 16시까지 (UTC)
시정: 0500m
고도 200ft 상공
안개

TAF: LTCS 090440Z 0906/1006 07009KT 2000 -RA BR BKN003 BKN016 TEMPO 0906/0909 0500 FG VV002 TEMPO 0909/0912 0500 FG VV002 TEMPO 0912/0916 0500 FG VV002

4,000개 이상의 공항 관측 자료 및 예보 (METAR 및 TAF 보고).

지도상에서 검색 가능한 기상관측소가 노란 점과 빨간 점으로 표시되어 있습니다.

기상관측소 명을 보려면 표시 위로 마우스를 이동하세요.

날씨 관측과 예보를 보려면 클릭하세요.

지도 변경 : 확대하려면 엑스 표시가 있는 녹색 버튼, 축소하려면 빼기 표시가 있는 녹색 버튼, 다음 페이지의 지도를 보려면 녹색 화살표를 클릭하세요.


METAR-TAF: